METAR Data
IDs: Format: Raw Decoded Include TAF

Data at: 0314 UTC 25 Feb 2021

KCNO 250253Z 29008KT 10SM CLR 15/08 A3001 RMK AO2 SLP160 LAST T01500078 53012 $